Time;durP1;ratioP1;P1;durP2;ratioP2;P2;SDS_P1;SDS_P2;PMS_P1;PMS_P2;Temp;Humidity;BMP_temperature;BMP_pressure;BME280_temperature;BME280_humidity;BME280_pressure;Samples;Min_cycle;Max_cycle;Signal;HPM_P1;HPM_P2
2022/03/03 00:02:04;;;;;;;44.45;18.17;;;;;;;4.74;78.85;100253.47;4957821;28;20078;-50
2022/03/03 00:04:31;;;;;;;41.65;17.02;;;;;;;4.74;78.65;100261.19;4964559;28;20038;-46
2022/03/03 00:06:57;;;;;;;44.65;17.52;;;;;;;4.74;78.27;100250.91;4965611;28;20082;-46
2022/03/03 00:09:24;;;;;;;45.70;18.02;;;;;;;4.72;78.54;100256.00;4968355;28;20495;-44
2022/03/03 00:11:51;;;;;;;40.75;16.48;;;;;;;4.74;78.49;100256.06;4965340;28;20105;-45
2022/03/03 00:14:18;;;;;;;50.85;18.95;;;;;;;4.73;78.79;100260.31;4967299;28;20602;-48
2022/03/03 00:16:45;;;;;;;48.03;16.92;;;;;;;4.74;78.58;100256.06;4973347;28;20089;-48
2022/03/03 00:19:11;;;;;;;54.95;20.75;;;;;;;4.76;78.32;100254.38;4968069;28;20411;-43
2022/03/03 00:21:38;;;;;;;53.95;20.02;;;;;;;4.74;78.80;100250.91;4963630;28;20051;-50
2022/03/03 00:24:05;;;;;;;46.00;17.02;;;;;;;4.75;79.12;100239.81;4967931;28;20047;-46
2022/03/03 00:26:31;;;;;;;40.85;17.08;;;;;;;4.70;78.92;100249.09;4971524;28;20043;-49
2022/03/03 00:28:58;;;;;;;51.20;18.95;;;;;;;4.73;78.85;100244.06;4966476;28;20046;-45
2022/03/03 00:31:25;;;;;;;45.28;18.77;;;;;;;4.75;78.78;100250.09;4962724;28;20105;-49
2022/03/03 00:33:51;;;;;;;50.00;18.67;;;;;;;4.74;78.68;100245.78;4965316;28;20069;-46
2022/03/03 00:36:18;;;;;;;56.78;20.60;;;;;;;4.75;78.85;100237.25;4964616;28;20058;-45
2022/03/03 00:38:44;;;;;;;50.58;18.90;;;;;;;4.78;78.43;100239.91;4960049;28;20110;-44
2022/03/03 00:41:11;;;;;;;43.30;17.63;;;;;;;4.79;78.72;100233.91;4965523;28;20043;-47
2022/03/03 00:43:38;;;;;;;50.03;19.10;;;;;;;4.79;78.95;100225.38;4966906;28;20097;-45
2022/03/03 00:46:04;;;;;;;50.15;19.00;;;;;;;4.77;78.88;100227.91;4966400;28;20051;-44
2022/03/03 00:48:31;;;;;;;50.22;17.60;;;;;;;4.79;78.15;100223.66;4967433;28;20054;-48
2022/03/03 00:50:59;;;;;;;59.28;21.42;;;;;;;4.79;78.44;100223.66;4962652;28;20094;-45
2022/03/03 00:53:26;;;;;;;51.28;20.38;;;;;;;4.80;78.57;100225.38;4965255;28;20054;-49
2022/03/03 00:55:53;;;;;;;50.85;19.90;;;;;;;4.76;78.77;100215.88;4965434;28;20046;-46
2022/03/03 00:58:19;;;;;;;44.42;17.40;;;;;;;4.74;79.54;100209.88;4967129;28;20554;-46
2022/03/03 01:00:46;;;;;;;51.45;20.25;;;;;;;4.73;79.08;100213.25;4964830;28;20120;-49
2022/03/03 01:03:13;;;;;;;47.25;19.48;;;;;;;4.72;79.11;100211.50;4964113;28;20086;-46
2022/03/03 01:05:39;;;;;;;48.70;18.67;;;;;;;4.74;78.76;100209.88;4962828;28;20055;-46
2022/03/03 01:08:10;;;;;;;52.35;20.42;;;;;;;4.74;78.71;100212.44;4964355;28;20829;-47
2022/03/03 01:10:37;;;;;;;48.97;19.88;;;;;;;4.76;78.56;100213.31;4963448;28;20051;-46
2022/03/03 01:13:04;;;;;;;48.30;18.50;;;;;;;4.76;78.79;100213.31;4966835;28;20502;-46
2022/03/03 01:15:31;;;;;;;55.20;20.15;;;;;;;4.74;78.88;100207.28;4966071;28;20488;-45
2022/03/03 01:17:58;;;;;;;45.10;17.58;;;;;;;4.75;78.58;100207.34;4962598;28;20146;-49
2022/03/03 01:20:27;;;;;;;60.42;21.42;;;;;;;4.79;78.59;100198.00;4965258;28;20113;-46
2022/03/03 01:22:54;;;;;;;54.20;20.40;;;;;;;4.75;78.94;100196.19;4961354;28;20054;-47
2022/03/03 01:25:21;;;;;;;53.22;21.98;;;;;;;4.76;78.83;100195.34;4962286;28;20035;-46
2022/03/03 01:27:48;;;;;;;51.13;19.45;;;;;;;4.74;78.41;100186.75;4967379;28;20545;-46
2022/03/03 01:30:15;;;;;;;48.30;19.52;;;;;;;4.76;78.46;100187.66;4964767;28;20869;-46
2022/03/03 01:32:41;;;;;;;51.08;20.15;;;;;;;4.75;78.76;100183.34;4959705;28;20117;-49
2022/03/03 01:35:08;;;;;;;53.70;21.00;;;;;;;4.71;78.95;100168.72;4964418;28;20058;-44
2022/03/03 01:37:35;;;;;;;51.53;20.25;;;;;;;4.73;79.19;100172.22;4962043;28;20830;-46
2022/03/03 01:40:02;;;;;;;57.72;23.02;;;;;;;4.72;78.99;100167.88;4966443;28;20080;-46
2022/03/03 01:42:28;;;;;;;57.53;21.25;;;;;;;4.70;79.29;100161.88;4961719;28;20039;-46
2022/03/03 01:44:55;;;;;;;48.53;22.65;;;;;;;4.73;78.99;100162.78;4962469;28;20081;-47
2022/03/03 01:47:25;;;;;;;56.05;21.63;;;;;;;4.73;79.37;100149.97;4964151;28;20125;-45
2022/03/03 01:49:56;;;;;;;53.95;21.55;;;;;;;4.74;79.13;100159.41;4966063;28;20051;-47
2022/03/03 01:52:23;;;;;;;52.97;20.83;;;;;;;4.76;78.71;100156.84;4966124;28;20053;-48
2022/03/03 01:54:50;;;;;;;53.42;21.52;;;;;;;4.74;79.15;100149.16;4967741;28;20050;-48
2022/03/03 01:57:19;;;;;;;54.03;20.75;;;;;;;4.75;79.15;100145.75;4970463;28;20058;-45
2022/03/03 01:59:47;;;;;;;48.42;18.50;;;;;;;4.73;78.99;100146.56;4966407;28;20047;-45
2022/03/03 02:02:14;;;;;;;50.05;20.30;;;;;;;4.76;79.08;100138.91;4966976;28;20105;-50
2022/03/03 02:04:41;;;;;;;57.70;22.42;;;;;;;4.77;78.70;100138.09;4966258;28;20061;-46
2022/03/03 02:07:09;;;;;;;55.72;22.42;;;;;;;4.76;78.47;100131.19;4964467;28;20083;-49
2022/03/03 02:09:36;;;;;;;57.42;22.08;;;;;;;4.75;79.30;100135.47;4968707;28;20668;-47
2022/03/03 02:12:04;;;;;;;55.03;19.83;;;;;;;4.74;78.58;100123.50;4968678;28;20054;-47
2022/03/03 02:14:41;;;;;;;52.10;22.90;;;;;;;4.76;78.95;100120.94;4968437;28;20077;-47
2022/03/03 02:17:08;;;;;;;54.72;21.98;;;;;;;4.76;78.83;100121.81;4967656;28;20047;-44
2022/03/03 02:19:34;;;;;;;57.55;22.40;;;;;;;4.79;78.98;100120.16;4967657;28;20051;-45
2022/03/03 02:22:01;;;;;;;59.83;24.15;;;;;;;4.81;78.82;100124.47;4967320;28;20046;-45
2022/03/03 02:24:27;;;;;;;52.13;22.25;;;;;;;4.83;78.86;100122.81;4965455;28;20471;-48
2022/03/03 02:26:58;;;;;;;52.88;20.52;;;;;;;4.86;79.02;100112.63;4970003;28;20615;-46
2022/03/03 02:29:25;;;;;;;59.33;23.25;;;;;;;4.93;78.25;100107.63;4967065;28;20050;-46
2022/03/03 02:31:52;;;;;;;54.38;21.60;;;;;;;4.91;78.32;100104.13;4969104;28;20046;-44
2022/03/03 02:34:18;;;;;;;56.33;22.50;;;;;;;4.93;78.39;100107.63;4968387;28;20420;-45
2022/03/03 02:36:45;;;;;;;54.58;23.38;;;;;;;4.95;78.96;100105.94;4970520;28;20047;-46
2022/03/03 02:39:11;;;;;;;57.10;22.58;;;;;;;4.94;78.83;100099.97;4969403;28;20046;-49
2022/03/03 02:41:38;;;;;;;53.95;22.70;;;;;;;4.97;78.78;100101.72;4970579;28;20141;-46
2022/03/03 02:44:04;;;;;;;54.42;20.48;;;;;;;4.98;78.16;100095.75;4964435;28;20116;-44
2022/03/03 02:46:32;;;;;;;59.30;20.42;;;;;;;4.98;78.30;100094.06;4969466;28;20069;-49
2022/03/03 02:48:59;;;;;;;51.92;20.27;;;;;;;4.99;77.71;100087.19;4963100;28;20059;-45
2022/03/03 02:51:25;;;;;;;51.75;21.45;;;;;;;5.00;78.25;100084.66;4967783;28;20113;-45
2022/03/03 02:53:52;;;;;;;53.65;21.23;;;;;;;5.02;78.57;100089.84;4965272;28;20054;-51
2022/03/03 02:56:19;;;;;;;56.97;22.02;;;;;;;5.01;77.94;100080.41;4967423;28;20113;-46
2022/03/03 02:58:45;;;;;;;49.47;21.48;;;;;;;5.02;78.13;100077.00;4970239;28;20474;-44
2022/03/03 03:01:13;;;;;;;56.05;23.02;;;;;;;5.05;78.69;100069.38;4963380;28;20054;-49
2022/03/03 03:03:40;;;;;;;54.83;20.85;;;;;;;5.03;78.03;100077.88;4963353;28;20052;-47
2022/03/03 03:06:07;;;;;;;54.88;21.67;;;;;;;5.04;77.99;100070.22;4962641;28;20112;-48
2022/03/03 03:08:34;;;;;;;51.88;21.77;;;;;;;5.04;77.66;100070.22;4963698;28;20047;-49
2022/03/03 03:11:00;;;;;;;49.83;21.38;;;;;;;5.06;78.19;100058.25;4968856;28;20051;-46
2022/03/03 03:13:27;;;;;;;51.53;23.13;;;;;;;5.05;77.92;100061.66;4963319;28;20099;-45
2022/03/03 03:15:54;;;;;;;54.90;21.80;;;;;;;5.09;77.76;100063.44;4970319;28;20110;-49
2022/03/03 03:18:22;;;;;;;53.17;21.52;;;;;;;5.11;77.79;100059.22;4966023;28;20062;-50
2022/03/03 03:20:51;;;;;;;55.55;23.58;;;;;;;5.12;78.00;100058.38;4965618;28;20051;-44
2022/03/03 03:23:20;;;;;;;55.28;22.48;;;;;;;5.14;78.43;100061.84;4964493;28;20054;-45
2022/03/03 03:25:47;;;;;;;56.20;22.63;;;;;;;5.18;77.96;100059.34;4965463;28;20133;-46
2022/03/03 03:28:16;;;;;;;56.08;21.92;;;;;;;5.20;77.57;100055.09;4967732;28;20109;-45
2022/03/03 03:30:43;;;;;;;50.83;21.23;;;;;;;5.21;77.84;100057.72;4958465;28;20055;-47
2022/03/03 03:33:10;;;;;;;53.85;21.63;;;;;;;5.25;78.26;100058.63;4967267;28;20046;-47
2022/03/03 03:35:36;;;;;;;49.10;20.52;;;;;;;5.27;77.54;100056.97;4964030;28;20050;-48
2022/03/03 03:38:04;;;;;;;54.90;21.30;;;;;;;5.28;77.96;100053.53;4965411;28;20043;-47
2022/03/03 03:40:30;;;;;;;56.25;22.13;;;;;;;5.30;78.28;100051.84;4966766;28;20138;-47
2022/03/03 03:42:57;;;;;;;52.25;20.58;;;;;;;5.29;77.78;100055.28;4964282;28;20105;-51
2022/03/03 03:45:23;;;;;;;55.05;22.90;;;;;;;5.29;78.30;100047.56;4968123;28;20047;-46
2022/03/03 03:47:50;;;;;;;48.83;22.73;;;;;;;5.30;77.91;100051.84;4963935;28;20074;-51
2022/03/03 03:50:17;;;;;;;58.30;22.85;;;;;;;5.31;77.60;100051.03;4968567;28;20054;-50
2022/03/03 03:52:43;;;;;;;56.17;23.25;;;;;;;5.32;77.09;100047.63;4967448;28;20054;-48
2022/03/03 03:55:12;;;;;;;56.08;21.75;;;;;;;5.33;78.20;100051.91;4960710;28;20500;-48
2022/03/03 03:57:39;;;;;;;51.72;21.58;;;;;;;5.32;78.05;100055.34;4966505;28;20051;-46
2022/03/03 04:00:09;;;;;;;57.63;21.95;;;;;;;5.32;77.21;100050.19;4967989;28;20055;-49
2022/03/03 04:02:36;;;;;;;56.83;21.63;;;;;;;5.31;77.62;100048.47;4960356;28;20055;-47
2022/03/03 04:05:03;;;;;;;54.53;20.60;;;;;;;5.32;77.12;100044.19;4963285;28;20053;-47
2022/03/03 04:07:30;;;;;;;49.85;21.20;;;;;;;5.30;77.38;100044.16;4964549;28;20058;-48
2022/03/03 04:09:58;;;;;;;55.25;20.55;;;;;;;5.30;78.30;100040.75;4962852;28;20047;-48
2022/03/03 04:12:25;;;;;;;52.42;21.95;;;;;;;5.30;77.06;100035.59;4962394;28;20051;-46
2022/03/03 04:14:52;;;;;;;56.67;21.52;;;;;;;5.27;77.18;100031.28;4965303;28;20094;-48
2022/03/03 04:17:19;;;;;;;53.70;20.95;;;;;;;5.27;77.98;100031.28;4965038;28;20058;-49
2022/03/03 04:19:46;;;;;;;48.78;21.80;;;;;;;5.27;78.17;100036.41;4969957;28;20577;-49
2022/03/03 04:22:12;;;;;;;51.38;21.75;;;;;;;5.26;77.70;100029.53;4963361;28;20051;-49
2022/03/03 04:24:39;;;;;;;54.90;21.05;;;;;;;5.26;77.99;100029.53;4964919;28;20043;-48
2022/03/03 04:27:06;;;;;;;45.22;20.00;;;;;;;5.24;77.38;100032.06;4964226;28;20082;-48
2022/03/03 04:29:32;;;;;;;49.17;20.13;;;;;;;5.22;77.94;100022.59;4962521;28;20054;-50
2022/03/03 04:31:59;;;;;;;52.75;22.08;;;;;;;5.21;77.58;100026.00;4966411;28;20050;-46
2022/03/03 04:34:25;;;;;;;54.72;21.52;;;;;;;5.19;78.13;100022.53;4966221;28;20129;-47
2022/03/03 04:36:53;;;;;;;53.35;22.98;;;;;;;5.18;77.20;100018.25;4959707;28;20098;-46
2022/03/03 04:39:20;;;;;;;51.65;20.10;;;;;;;5.14;77.95;100018.19;4966684;28;20054;-45
2022/03/03 04:41:47;;;;;;;50.22;18.65;;;;;;;5.13;77.26;100019.03;4965343;28;20519;-47
2022/03/03 04:44:14;;;;;;;46.60;19.95;;;;;;;5.11;78.15;100017.28;4963650;28;20090;-48
2022/03/03 04:46:40;;;;;;;53.03;21.85;;;;;;;5.10;78.01;100008.69;4965633;28;20059;-49
2022/03/03 04:49:07;;;;;;;47.67;19.88;;;;;;;5.10;78.19;100005.28;4964724;28;20054;-46
2022/03/03 04:51:36;;;;;;;50.80;19.25;;;;;;;5.08;78.08;100010.38;4960272;28;20058;-48
2022/03/03 04:54:05;;;;;;;54.53;21.98;;;;;;;5.08;77.54;100010.38;4966873;28;20043;-47
2022/03/03 04:56:32;;;;;;;46.90;20.55;;;;;;;5.08;77.36;100009.50;4968026;28;20046;-47
2022/03/03 04:58:59;;;;;;;50.47;21.08;;;;;;;5.04;77.75;100013.72;4978968;28;20042;-45
2022/03/03 05:01:26;;;;;;;49.45;20.30;;;;;;;5.02;78.24;100005.13;4960627;28;20051;-47
2022/03/03 05:03:52;;;;;;;52.53;22.50;;;;;;;5.01;78.17;100001.66;4964316;28;20451;-46
2022/03/03 05:06:19;;;;;;;48.10;19.77;;;;;;;5.01;78.61;100004.25;4968496;28;20058;-46
2022/03/03 05:08:46;;;;;;;54.17;19.88;;;;;;;4.98;78.50;100008.47;4964142;28;20051;-48
2022/03/03 05:11:13;;;;;;;54.03;22.20;;;;;;;5.00;77.20;100007.66;4962830;28;20046;-48
2022/03/03 05:13:39;;;;;;;49.50;20.42;;;;;;;4.98;77.33;100003.31;4960861;28;20572;-48
2022/03/03 05:16:06;;;;;;;47.45;18.13;;;;;;;4.93;78.05;100010.94;4967725;28;20043;-48
2022/03/03 05:18:33;;;;;;;43.10;19.05;;;;;;;4.94;77.58;100002.41;4967042;28;20117;-48
2022/03/03 05:21:00;;;;;;;48.70;20.52;;;;;;;4.92;77.70;100005.75;4962922;28;20054;-47
2022/03/03 05:23:26;;;;;;;52.65;21.02;;;;;;;4.89;77.47;100010.03;4969427;28;20069;-49
2022/03/03 05:25:53;;;;;;;47.50;19.67;;;;;;;4.87;78.49;100011.66;4966706;28;20117;-46
2022/03/03 05:28:19;;;;;;;43.45;18.85;;;;;;;4.84;78.13;100005.63;4967896;28;20054;-51
2022/03/03 05:30:46;;;;;;;56.05;20.98;;;;;;;4.87;78.53;100011.66;4967719;28;20086;-44
2022/03/03 05:33:14;;;;;;;59.15;22.13;;;;;;;4.89;78.20;99999.75;4968080;28;20127;-50
2022/03/03 05:35:41;;;;;;;56.42;21.83;;;;;;;4.87;78.16;100011.66;4970151;28;20047;-46
2022/03/03 05:38:09;;;;;;;53.17;20.65;;;;;;;4.89;78.55;100010.03;4968443;28;20055;-48
2022/03/03 05:40:36;;;;;;;55.53;21.52;;;;;;;4.92;77.55;100009.22;4968898;28;20458;-44
2022/03/03 05:43:02;;;;;;;51.20;20.70;;;;;;;4.95;78.05;100005.81;4966148;28;20078;-48
2022/03/03 05:45:32;;;;;;;44.78;20.70;;;;;;;4.97;78.49;100004.16;4972452;28;20093;-46
2022/03/03 05:48:00;;;;;;;49.88;21.75;;;;;;;5.00;78.31;100001.66;4978663;28;20098;-47
2022/03/03 05:50:27;;;;;;;50.35;21.55;;;;;;;4.99;78.42;99995.66;4968470;28;20054;-48
2022/03/03 05:52:54;;;;;;;53.78;20.52;;;;;;;5.02;77.63;100005.13;4965983;28;20137;-50
2022/03/03 05:55:21;;;;;;;48.35;20.67;;;;;;;5.04;77.84;100008.59;4966203;28;20039;-46
2022/03/03 05:57:53;;;;;;;54.03;22.17;;;;;;;5.06;78.39;100013.75;4969683;28;20051;-52
2022/03/03 06:00:20;;;;;;;54.15;21.52;;;;;;;5.08;77.26;100023.22;4965983;28;20507;-48
2022/03/03 06:02:51;;;;;;;50.85;20.40;;;;;;;5.09;77.58;100030.06;4967109;28;20062;-48
2022/03/03 06:05:19;;;;;;;;;;;;;;;5.04;77.92;100034.28;4965963;28;20056;-50
2022/03/03 06:07:51;;;;;;;46.05;19.90;;;;;;;5.09;77.27;100019.81;4967614;28;19981;-47
2022/03/03 06:10:23;;;;;;;56.97;22.45;;;;;;;5.09;77.17;100012.09;4965974;28;20062;-52
2022/03/03 06:13:04;;;;;;;55.63;22.35;;;;;;;5.07;77.66;100015.47;4952333;28;20117;-44
2022/03/03 06:15:31;;;;;;;48.33;19.67;;;;;;;5.07;77.40;100011.19;4967936;28;20047;-50
2022/03/03 06:17:59;;;;;;;56.53;22.33;;;;;;;5.08;77.88;100015.50;4966538;28;20046;-47
2022/03/03 06:20:27;;;;;;;51.08;21.33;;;;;;;5.07;78.13;100013.75;4966947;28;20051;-50
2022/03/03 06:22:54;;;;;;;48.58;22.40;;;;;;;5.05;77.64;100020.59;4965709;28;20553;-48
2022/03/03 06:25:21;;;;;;;44.03;19.65;;;;;;;5.04;78.04;100016.28;4967343;28;20099;-48
2022/03/03 06:27:47;;;;;;;46.65;22.05;;;;;;;5.06;77.42;100017.19;4968178;28;20117;-49
2022/03/03 06:30:14;;;;;;;50.70;20.48;;;;;;;5.08;77.44;100015.50;4973201;28;20051;-49
2022/03/03 06:32:41;;;;;;;51.33;21.23;;;;;;;5.07;77.27;100008.63;4967271;28;20105;-46
2022/03/03 06:35:08;;;;;;;48.55;20.30;;;;;;;5.11;78.04;100009.56;4965090;28;20083;-46
2022/03/03 06:37:34;;;;;;;54.47;21.80;;;;;;;5.10;77.71;100007.84;4967113;28;20050;-48
2022/03/03 06:40:01;;;;;;;50.92;19.98;;;;;;;5.10;77.95;100013.81;4966848;28;20137;-45
2022/03/03 06:42:30;;;;;;;48.97;20.52;;;;;;;5.10;77.87;100008.69;4967657;28;20138;-45
2022/03/03 06:44:56;;;;;;;52.90;22.20;;;;;;;5.09;77.77;100006.97;4964757;28;20081;-48
2022/03/03 06:47:23;;;;;;;51.58;19.80;;;;;;;5.07;77.26;100008.63;4967617;28;21360;-49
2022/03/03 06:49:49;;;;;;;52.50;21.75;;;;;;;5.08;78.25;100012.94;4966491;28;20491;-47
2022/03/03 06:52:17;;;;;;;49.92;21.80;;;;;;;5.08;77.21;100010.38;4967602;28;20609;-47
2022/03/03 06:54:46;;;;;;;51.03;22.38;;;;;;;5.09;78.40;100006.09;4965111;28;20078;-47
2022/03/03 06:57:17;;;;;;;55.42;22.23;;;;;;;5.10;77.50;100013.81;4962395;28;20050;-47
2022/03/03 06:59:44;;;;;;;52.53;21.63;;;;;;;5.09;78.14;100001.84;4972346;28;20112;-48
2022/03/03 07:02:11;;;;;;;56.53;20.95;;;;;;;5.11;77.32;100004.44;4963077;28;20097;-46
2022/03/03 07:04:39;;;;;;;52.67;22.65;;;;;;;5.12;78.17;100007.03;4968769;28;20509;-46
2022/03/03 07:07:06;;;;;;;46.28;21.00;;;;;;;5.13;77.13;99995.03;4962088;28;20042;-45
2022/03/03 07:09:34;;;;;;;47.95;20.55;;;;;;;5.15;77.58;100006.22;4961557;28;20482;-49
2022/03/03 07:12:01;;;;;;;44.08;20.60;;;;;;;5.18;78.07;100002.84;4963198;28;20054;-46
2022/03/03 07:14:28;;;;;;;59.60;22.25;;;;;;;5.20;77.07;100003.75;4965221;28;20043;-44
2022/03/03 07:17:01;;;;;;;53.25;22.40;;;;;;;5.22;77.62;100002.94;4965848;28;20055;-46
2022/03/03 07:19:44;;;;;;;48.70;20.58;;;;;;;5.24;77.90;100008.09;4965920;28;20050;-46
2022/03/03 07:22:19;;;;;;;;;;;;;;;5.20;77.12;100001.19;4964494;28;20462;-46
2022/03/03 07:24:57;;;;;;;53.17;21.70;;;;;;;5.25;77.76;100003.00;4996465;28;20371;-47
2022/03/03 07:27:25;;;;;;;49.95;20.88;;;;;;;5.26;77.09;100003.84;4964553;28;20153;-45
2022/03/03 07:29:58;;;;;;;49.42;21.38;;;;;;;5.28;78.08;100007.31;4964865;28;20047;-48
2022/03/03 07:32:33;;;;;;;51.13;22.20;;;;;;;5.31;77.79;100012.50;4962676;28;21258;-46
2022/03/03 07:35:05;;;;;;;49.33;20.42;;;;;;;5.31;77.82;100002.25;4961908;28;20062;-48
2022/03/03 07:37:38;;;;;;;41.22;17.70;;;;;;;5.29;77.99;100009.03;4959518;28;20051;-46
2022/03/03 07:40:08;;;;;;;50.53;21.15;;;;;;;5.32;76.88;100005.66;4960692;28;20115;-48
2022/03/03 07:42:36;;;;;;;48.40;19.58;;;;;;;5.33;77.15;100008.25;4958977;28;20046;-54
2022/03/03 07:45:05;;;;;;;54.78;21.40;;;;;;;5.34;78.05;100001.44;4959468;28;20059;-48
2022/03/03 07:47:32;;;;;;;58.15;21.80;;;;;;;5.35;77.53;100006.59;4960759;28;20051;-46
2022/03/03 07:49:58;;;;;;;44.67;21.02;;;;;;;5.37;76.86;100002.34;4959235;28;20066;-44
2022/03/03 07:52:26;;;;;;;55.13;21.67;;;;;;;5.38;77.17;99998.91;4961669;28;20050;-46
2022/03/03 07:54:53;;;;;;;51.80;21.63;;;;;;;5.40;76.95;100002.41;4959803;28;20475;-48
2022/03/03 07:57:22;;;;;;;50.15;19.00;;;;;;;5.42;76.66;100004.13;4962654;28;20455;-45
2022/03/03 08:00:07;;;;;;;50.33;20.27;;;;;;;5.42;76.88;99996.41;4959826;28;20047;-49
2022/03/03 08:02:34;;;;;;;51.63;20.73;;;;;;;5.45;77.72;100012.75;4971722;28;20055;-45
2022/03/03 08:05:04;;;;;;;41.80;18.52;;;;;;;5.46;77.17;100005.91;4959517;28;20388;-46
2022/03/03 08:07:38;;;;;;;47.95;19.35;;;;;;;5.49;77.35;100000.81;4963218;28;20046;-50
2022/03/03 08:10:06;;;;;;;51.70;22.00;;;;;;;5.49;76.54;99995.69;4960829;28;20058;-44
2022/03/03 08:12:33;;;;;;;45.95;22.40;;;;;;;5.51;77.29;99999.16;4957661;28;20094;-49
2022/03/03 08:15:00;;;;;;;46.65;20.13;;;;;;;5.50;76.62;99997.41;4957699;28;20063;-50
2022/03/03 08:17:27;;;;;;;40.40;17.67;;;;;;;5.51;77.29;99991.44;4962158;28;20047;-48
2022/03/03 08:19:55;;;;;;;45.20;16.27;;;;;;;5.49;76.78;99995.69;4959354;28;20456;-46
2022/03/03 08:22:26;;;;;;;53.42;22.33;;;;;;;5.50;76.55;99997.41;4958732;28;20054;-46
2022/03/03 08:24:55;;;;;;;37.38;17.05;;;;;;;5.53;76.95;100005.16;4964438;28;20063;-47
2022/03/03 08:27:25;;;;;;;46.78;17.33;;;;;;;5.58;77.33;100003.56;4960062;28;20576;-48
2022/03/03 08:29:53;;;;;;;48.80;20.27;;;;;;;5.64;76.99;100003.66;4955892;28;20105;-46
2022/03/03 08:32:21;;;;;;;51.33;20.08;;;;;;;5.70;76.29;100007.16;4958290;28;20143;-48
2022/03/03 08:35:10;;;;;;;53.42;19.48;;;;;;;5.74;77.24;100007.25;4962649;28;20423;-47
2022/03/03 08:37:41;;;;;;;47.92;20.38;;;;;;;5.76;77.22;100010.72;4957078;28;20145;-46
2022/03/03 08:40:11;;;;;;;56.63;22.05;;;;;;;5.81;76.59;100008.19;4962857;28;20046;-45
2022/03/03 08:42:43;;;;;;;50.28;19.92;;;;;;;5.82;76.83;100009.94;4960959;28;20488;-45
2022/03/03 08:45:10;;;;;;;53.15;23.15;;;;;;;5.83;76.14;100011.66;4966752;28;20101;-50
2022/03/03 08:47:39;;;;;;;50.47;21.75;;;;;;;5.85;76.22;100014.28;4961922;28;20058;-47
2022/03/03 08:50:09;;;;;;;53.97;24.00;;;;;;;5.89;76.64;100013.47;4966927;28;20050;-45
2022/03/03 08:52:56;;;;;;;43.45;18.67;;;;;;;5.90;75.51;100018.66;4962728;28;20043;-47
2022/03/03 08:55:23;;;;;;;49.30;21.23;;;;;;;5.92;75.85;100016.94;4968650;28;20113;-49
2022/03/03 08:57:50;;;;;;;50.72;22.65;;;;;;;5.96;76.71;100017.00;4964176;28;20051;-45
2022/03/03 09:00:17;;;;;;;56.45;22.65;;;;;;;5.96;75.60;100023.03;4965881;28;20047;-48
2022/03/03 09:02:46;;;;;;;57.40;22.50;;;;;;;6.00;75.27;100021.34;4963958;28;20054;-47
2022/03/03 09:05:13;;;;;;;44.00;18.77;;;;;;;5.98;76.53;100025.63;4970026;28;20047;-47
2022/03/03 09:07:40;;;;;;;50.38;20.42;;;;;;;6.03;76.12;100032.59;4965166;28;20046;-44
2022/03/03 09:10:08;;;;;;;56.50;20.90;;;;;;;6.03;76.53;100035.16;4981875;28;20097;-46
2022/03/03 09:12:35;;;;;;;48.90;21.25;;;;;;;6.06;76.21;100029.19;4961658;28;20538;-47
2022/03/03 09:15:03;;;;;;;52.97;21.63;;;;;;;6.06;76.43;100026.63;4962940;28;20058;-46
2022/03/03 09:17:32;;;;;;;47.38;21.67;;;;;;;6.08;76.73;100027.50;4966927;28;20138;-47
2022/03/03 09:20:00;;;;;;;48.58;20.55;;;;;;;6.08;75.74;100032.66;4967583;28;20074;-48
2022/03/03 09:22:28;;;;;;;49.30;22.92;;;;;;;6.10;76.54;100035.25;4969267;28;20062;-46
2022/03/03 09:24:55;;;;;;;49.65;20.38;;;;;;;6.12;76.10;100039.56;4969355;28;20093;-48
2022/03/03 09:27:22;;;;;;;54.05;19.17;;;;;;;6.15;76.18;100037.03;4966818;28;20739;-46
2022/03/03 09:29:50;;;;;;;53.35;22.50;;;;;;;6.19;76.83;100049.94;4964333;28;20059;-51
2022/03/03 09:32:16;;;;;;;53.53;22.48;;;;;;;6.23;76.82;100051.72;4962683;28;20054;-47
2022/03/03 09:34:46;;;;;;;51.47;22.67;;;;;;;6.27;75.70;100048.38;4967367;28;20054;-51
2022/03/03 09:37:14;;;;;;;52.53;19.92;;;;;;;6.27;76.47;100043.22;4968416;28;20042;-49
2022/03/03 09:39:41;;;;;;;49.05;18.55;;;;;;;6.31;75.57;100050.13;4964250;28;20971;-48
2022/03/03 09:42:08;;;;;;;52.30;21.17;;;;;;;6.32;75.91;100048.44;4968424;28;20050;-47
2022/03/03 09:44:35;;;;;;;51.60;21.95;;;;;;;6.34;76.11;100050.19;4960826;28;20054;-50
2022/03/03 09:47:03;;;;;;;49.70;21.00;;;;;;;6.38;75.96;100046.81;4968598;28;20046;-46
2022/03/03 09:49:30;;;;;;;49.85;22.80;;;;;;;6.40;76.62;100042.56;4959360;28;20059;-46
2022/03/03 09:51:57;;;;;;;48.78;21.58;;;;;;;6.41;76.15;100034.00;4961930;28;20047;-44
2022/03/03 09:54:24;;;;;;;51.22;21.63;;;;;;;6.42;75.42;100038.28;4958510;28;20059;-50
2022/03/03 09:56:50;;;;;;;51.75;21.90;;;;;;;6.45;75.42;100039.19;4966241;28;20050;-47
2022/03/03 09:59:17;;;;;;;53.20;23.20;;;;;;;6.48;75.94;100028.94;4965127;28;20051;-48
2022/03/03 10:01:45;;;;;;;47.80;21.75;;;;;;;6.54;75.24;100034.16;4965144;28;20047;-48
2022/03/03 10:04:15;;;;;;;47.80;21.23;;;;;;;6.59;75.33;100040.25;4965351;28;20054;-49
2022/03/03 10:06:43;;;;;;;42.72;20.38;;;;;;;6.65;75.57;100039.44;4962720;28;20145;-47
2022/03/03 10:09:10;;;;;;;49.33;19.38;;;;;;;6.69;75.11;100029.22;4966249;28;20674;-51
2022/03/03 10:11:40;;;;;;;53.45;23.40;;;;;;;6.75;75.31;100035.31;4968913;28;20058;-45
2022/03/03 10:14:07;;;;;;;48.95;20.77;;;;;;;6.79;75.49;100031.94;4962401;28;20054;-49
2022/03/03 10:16:33;;;;;;;49.30;22.05;;;;;;;6.84;74.45;100031.97;4958632;28;20047;-45
2022/03/03 10:19:04;;;;;;;52.45;22.02;;;;;;;6.91;74.49;100026.03;4961943;28;20043;-47
2022/03/03 10:21:33;;;;;;;46.90;20.55;;;;;;;6.97;74.52;100027.81;4958398;28;20408;-47
2022/03/03 10:24:13;;;;;;;54.05;22.05;;;;;;;6.99;75.65;100023.56;4958206;28;20085;-50
2022/03/03 10:26:39;;;;;;;49.05;20.25;;;;;;;7.04;76.08;100021.91;4960999;28;20047;-47
2022/03/03 10:29:23;;;;;;;51.13;22.40;;;;;;;7.11;75.06;100021.13;4954665;28;20487;-47
2022/03/03 10:31:50;;;;;;;;;;;;;;;7.08;74.63;100018.50;4958529;28;20051;-45
2022/03/03 10:34:21;;;;;;;48.35;21.70;;;;;;;7.16;75.37;100019.47;4960388;28;19926;-45
2022/03/03 10:37:05;;;;;;;51.63;21.63;;;;;;;7.23;74.09;100022.13;4941702;28;20118;-47
2022/03/03 10:39:55;;;;;;;52.03;23.23;;;;;;;7.31;75.49;100020.47;4951326;28;20054;-44
2022/03/03 10:42:22;;;;;;;;;;;;;;;7.34;74.45;100025.66;4958671;28;20129;-46
2022/03/03 10:44:51;;;;;;;56.03;23.08;;;;;;;7.45;74.74;100024.06;4958136;28;19930;-46
2022/03/03 10:47:21;;;;;;;51.72;22.83;;;;;;;7.54;75.01;100025.00;4958516;28;20059;-46
2022/03/03 10:49:51;;;;;;;53.95;22.55;;;;;;;7.55;74.50;100029.28;4957231;28;20414;-51
2022/03/03 10:52:20;;;;;;;52.25;23.23;;;;;;;7.59;74.80;100023.31;4959781;28;20062;-52
2022/03/03 10:55:07;;;;;;;55.65;24.67;;;;;;;7.57;73.34;100022.44;4961969;28;20042;-49
2022/03/03 10:57:38;;;;;;;57.95;24.15;;;;;;;7.63;75.03;100022.50;4958930;28;20062;-47
2022/03/03 11:00:14;;;;;;;58.78;24.85;;;;;;;7.69;74.08;100027.72;4964542;28;20051;-48
2022/03/03 11:02:44;;;;;;;50.92;24.88;;;;;;;7.74;74.45;100029.47;4963068;28;20043;-46
2022/03/03 11:05:12;;;;;;;;;;;;;;;7.72;73.50;100038.06;4962183;28;20063;-51
2022/03/03 11:07:41;;;;;;;52.63;22.10;;;;;;;7.82;74.76;100030.38;4963217;28;19933;-48
2022/03/03 11:10:10;;;;;;;47.80;22.63;;;;;;;7.89;74.91;100029.59;4967199;28;20051;-48
2022/03/03 11:12:38;;;;;;;;;;;;;;;7.89;73.71;100029.59;4962420;28;20047;-46
2022/03/03 11:15:06;;;;;;;48.75;21.42;;;;;;;8.01;74.69;100027.97;4957388;28;19984;-46
2022/03/03 11:17:33;;;;;;;55.78;22.50;;;;;;;8.08;74.44;100030.56;4961132;28;20102;-47
2022/03/03 11:20:01;;;;;;;54.05;23.10;;;;;;;8.13;73.21;100024.59;4963014;28;20054;-48
2022/03/03 11:22:30;;;;;;;54.80;23.23;;;;;;;8.18;73.64;100025.50;4958195;28;20043;-49
2022/03/03 11:24:59;;;;;;;53.80;22.83;;;;;;;8.23;73.59;100013.47;4954581;28;20664;-42